sensor_id;sensor_type;location;lat;lon;timestamp;temperature;humidity
69359;HTU21D;56520;49.066;8.660;2023-12-20T00:01:47;5.45;92.55
69359;HTU21D;56520;49.066;8.660;2023-12-20T00:04:12;5.45;92.63
69359;HTU21D;56520;49.066;8.660;2023-12-20T00:06:38;5.46;92.88
69359;HTU21D;56520;49.066;8.660;2023-12-20T00:09:03;5.49;93.11
69359;HTU21D;56520;49.066;8.660;2023-12-20T00:11:28;5.49;93.22
69359;HTU21D;56520;49.066;8.660;2023-12-20T00:13:54;5.49;93.40
69359;HTU21D;56520;49.066;8.660;2023-12-20T00:16:19;5.51;93.91
69359;HTU21D;56520;49.066;8.660;2023-12-20T00:18:45;5.51;93.75
69359;HTU21D;56520;49.066;8.660;2023-12-20T00:21:11;5.45;93.67
69359;HTU21D;56520;49.066;8.660;2023-12-20T00:23:36;5.38;93.84
69359;HTU21D;56520;49.066;8.660;2023-12-20T00:26:02;5.33;94.08
69359;HTU21D;56520;49.066;8.660;2023-12-20T00:28:27;5.34;94.35
69359;HTU21D;56520;49.066;8.660;2023-12-20T00:30:53;5.35;94.56
69359;HTU21D;56520;49.066;8.660;2023-12-20T00:33:19;5.34;94.72
69359;HTU21D;56520;49.066;8.660;2023-12-20T00:35:44;5.39;94.85
69359;HTU21D;56520;49.066;8.660;2023-12-20T00:38:09;5.38;94.91
69359;HTU21D;56520;49.066;8.660;2023-12-20T00:40:36;5.33;94.95
69359;HTU21D;56520;49.066;8.660;2023-12-20T00:43:01;5.35;95.22
69359;HTU21D;56520;49.066;8.660;2023-12-20T00:45:27;5.34;95.25
69359;HTU21D;56520;49.066;8.660;2023-12-20T00:47:52;5.31;95.43
69359;HTU21D;56520;49.066;8.660;2023-12-20T00:50:18;5.28;95.59
69359;HTU21D;56520;49.066;8.660;2023-12-20T00:52:43;5.31;95.69
69359;HTU21D;56520;49.066;8.660;2023-12-20T00:55:08;5.35;95.78
69359;HTU21D;56520;49.066;8.660;2023-12-20T00:57:34;5.26;95.96
69359;HTU21D;56520;49.066;8.660;2023-12-20T01:00:00;5.24;96.05
69359;HTU21D;56520;49.066;8.660;2023-12-20T01:02:25;5.36;96.16
69359;HTU21D;56520;49.066;8.660;2023-12-20T01:04:50;5.33;96.24
69359;HTU21D;56520;49.066;8.660;2023-12-20T01:07:19;5.31;96.36
69359;HTU21D;56520;49.066;8.660;2023-12-20T01:09:44;5.40;96.22
69359;HTU21D;56520;49.066;8.660;2023-12-20T01:12:10;5.35;96.46
69359;HTU21D;56520;49.066;8.660;2023-12-20T01:14:35;5.42;96.38
69359;HTU21D;56520;49.066;8.660;2023-12-20T01:17:01;5.37;96.47
69359;HTU21D;56520;49.066;8.660;2023-12-20T01:19:27;5.50;96.33
69359;HTU21D;56520;49.066;8.660;2023-12-20T01:21:53;5.48;96.61
69359;HTU21D;56520;49.066;8.660;2023-12-20T01:24:19;5.49;96.58
69359;HTU21D;56520;49.066;8.660;2023-12-20T01:26:44;5.47;96.71
69359;HTU21D;56520;49.066;8.660;2023-12-20T01:29:10;5.46;96.82
69359;HTU21D;56520;49.066;8.660;2023-12-20T01:31:35;5.52;96.80
69359;HTU21D;56520;49.066;8.660;2023-12-20T01:34:00;5.47;96.96
69359;HTU21D;56520;49.066;8.660;2023-12-20T01:36:26;5.57;96.79
69359;HTU21D;56520;49.066;8.660;2023-12-20T01:38:51;5.55;96.80
69359;HTU21D;56520;49.066;8.660;2023-12-20T01:41:16;5.54;96.83
69359;HTU21D;56520;49.066;8.660;2023-12-20T01:43:42;5.47;96.94
69359;HTU21D;56520;49.066;8.660;2023-12-20T01:46:08;5.45;97.09
69359;HTU21D;56520;49.066;8.660;2023-12-20T01:48:33;5.56;97.03
69359;HTU21D;56520;49.066;8.660;2023-12-20T01:51:00;5.57;96.92
69359;HTU21D;56520;49.066;8.660;2023-12-20T01:53:28;5.60;96.87
69359;HTU21D;56520;49.066;8.660;2023-12-20T01:55:55;5.55;96.87
69359;HTU21D;56520;49.066;8.660;2023-12-20T01:58:22;5.59;96.83
69359;HTU21D;56520;49.066;8.660;2023-12-20T02:00:48;5.54;96.90
69359;HTU21D;56520;49.066;8.660;2023-12-20T02:03:14;5.51;97.03
69359;HTU21D;56520;49.066;8.660;2023-12-20T02:05:39;5.55;96.90
69359;HTU21D;56520;49.066;8.660;2023-12-20T02:08:06;5.55;96.98
69359;HTU21D;56520;49.066;8.660;2023-12-20T02:10:31;5.56;96.93
69359;HTU21D;56520;49.066;8.660;2023-12-20T02:12:57;5.56;96.97
69359;HTU21D;56520;49.066;8.660;2023-12-20T02:15:23;5.65;96.67
69359;HTU21D;56520;49.066;8.660;2023-12-20T02:17:49;5.66;96.44
69359;HTU21D;56520;49.066;8.660;2023-12-20T02:20:14;5.68;96.29
69359;HTU21D;56520;49.066;8.660;2023-12-20T02:22:40;5.59;96.46
69359;HTU21D;56520;49.066;8.660;2023-12-20T02:25:06;5.65;96.37
69359;HTU21D;56520;49.066;8.660;2023-12-20T02:27:31;5.59;96.53
69359;HTU21D;56520;49.066;8.660;2023-12-20T02:29:59;5.64;96.57
69359;HTU21D;56520;49.066;8.660;2023-12-20T02:32:25;5.61;96.46
69359;HTU21D;56520;49.066;8.660;2023-12-20T02:34:54;5.53;96.70
69359;HTU21D;56520;49.066;8.660;2023-12-20T02:37:20;5.67;96.45
69359;HTU21D;56520;49.066;8.660;2023-12-20T02:39:45;5.67;96.20
69359;HTU21D;56520;49.066;8.660;2023-12-20T02:42:11;5.61;96.39
69359;HTU21D;56520;49.066;8.660;2023-12-20T02:44:39;5.57;96.53
69359;HTU21D;56520;49.066;8.660;2023-12-20T02:47:07;5.55;96.60
69359;HTU21D;56520;49.066;8.660;2023-12-20T02:49:33;5.54;96.69
69359;HTU21D;56520;49.066;8.660;2023-12-20T02:51:58;5.51;96.99
69359;HTU21D;56520;49.066;8.660;2023-12-20T02:54:23;5.56;96.98
69359;HTU21D;56520;49.066;8.660;2023-12-20T02:56:49;5.57;96.97
69359;HTU21D;56520;49.066;8.660;2023-12-20T02:59:15;5.59;96.88
69359;HTU21D;56520;49.066;8.660;2023-12-20T03:01:44;5.57;96.91
69359;HTU21D;56520;49.066;8.660;2023-12-20T03:04:10;5.56;96.94
69359;HTU21D;56520;49.066;8.660;2023-12-20T03:06:36;5.59;96.97
69359;HTU21D;56520;49.066;8.660;2023-12-20T03:09:01;5.57;96.99
69359;HTU21D;56520;49.066;8.660;2023-12-20T03:11:27;5.59;96.98
69359;HTU21D;56520;49.066;8.660;2023-12-20T03:13:53;5.66;96.75
69359;HTU21D;56520;49.066;8.660;2023-12-20T03:16:18;5.62;96.78
69359;HTU21D;56520;49.066;8.660;2023-12-20T03:18:44;5.54;96.88
69359;HTU21D;56520;49.066;8.660;2023-12-20T03:21:09;5.54;96.99
69359;HTU21D;56520;49.066;8.660;2023-12-20T03:23:34;5.55;97.02
69359;HTU21D;56520;49.066;8.660;2023-12-20T03:26:00;5.52;97.10
69359;HTU21D;56520;49.066;8.660;2023-12-20T03:28:30;5.53;97.05
69359;HTU21D;56520;49.066;8.660;2023-12-20T03:30:55;5.55;96.98
69359;HTU21D;56520;49.066;8.660;2023-12-20T03:33:20;5.62;96.58
69359;HTU21D;56520;49.066;8.660;2023-12-20T03:35:46;5.63;96.44
69359;HTU21D;56520;49.066;8.660;2023-12-20T03:38:11;5.55;96.55
69359;HTU21D;56520;49.066;8.660;2023-12-20T03:40:37;5.53;96.67
69359;HTU21D;56520;49.066;8.660;2023-12-20T03:43:02;5.59;96.58
69359;HTU21D;56520;49.066;8.660;2023-12-20T03:45:28;5.63;96.38
69359;HTU21D;56520;49.066;8.660;2023-12-20T03:47:53;5.72;95.97
69359;HTU21D;56520;49.066;8.660;2023-12-20T03:50:23;5.66;96.02
69359;HTU21D;56520;49.066;8.660;2023-12-20T03:52:48;5.65;96.05
69359;HTU21D;56520;49.066;8.660;2023-12-20T03:55:14;5.59;96.23
69359;HTU21D;56520;49.066;8.660;2023-12-20T03:57:40;5.57;96.41
69359;HTU21D;56520;49.066;8.660;2023-12-20T04:00:09;5.54;96.49
69359;HTU21D;56520;49.066;8.660;2023-12-20T04:02:36;5.63;96.18
69359;HTU21D;56520;49.066;8.660;2023-12-20T04:05:02;5.68;96.10
69359;HTU21D;56520;49.066;8.660;2023-12-20T04:07:27;5.70;95.89
69359;HTU21D;56520;49.066;8.660;2023-12-20T04:09:55;5.78;95.62
69359;HTU21D;56520;49.066;8.660;2023-12-20T04:12:20;5.70;95.80
69359;HTU21D;56520;49.066;8.660;2023-12-20T04:14:46;5.64;95.97
69359;HTU21D;56520;49.066;8.660;2023-12-20T04:17:11;5.67;95.99
69359;HTU21D;56520;49.066;8.660;2023-12-20T04:19:36;5.74;95.83
69359;HTU21D;56520;49.066;8.660;2023-12-20T04:22:02;5.71;95.88
69359;HTU21D;56520;49.066;8.660;2023-12-20T04:24:27;5.76;95.69
69359;HTU21D;56520;49.066;8.660;2023-12-20T04:26:53;5.72;95.73
69359;HTU21D;56520;49.066;8.660;2023-12-20T04:29:18;5.74;95.94
69359;HTU21D;56520;49.066;8.660;2023-12-20T04:31:44;5.78;95.56
69359;HTU21D;56520;49.066;8.660;2023-12-20T04:34:09;5.76;95.63
69359;HTU21D;56520;49.066;8.660;2023-12-20T04:36:35;5.79;95.68
69359;HTU21D;56520;49.066;8.660;2023-12-20T04:39:00;5.80;95.46
69359;HTU21D;56520;49.066;8.660;2023-12-20T04:41:26;5.76;95.63
69359;HTU21D;56520;49.066;8.660;2023-12-20T04:43:52;5.77;95.81
69359;HTU21D;56520;49.066;8.660;2023-12-20T04:46:18;5.81;95.64
69359;HTU21D;56520;49.066;8.660;2023-12-20T04:48:43;5.78;95.68
69359;HTU21D;56520;49.066;8.660;2023-12-20T04:51:09;5.75;95.88
69359;HTU21D;56520;49.066;8.660;2023-12-20T04:53:34;5.79;95.77
69359;HTU21D;56520;49.066;8.660;2023-12-20T04:55:59;5.85;95.59
69359;HTU21D;56520;49.066;8.660;2023-12-20T04:58:25;5.81;95.67
69359;HTU21D;56520;49.066;8.660;2023-12-20T05:00:50;5.74;95.92
69359;HTU21D;56520;49.066;8.660;2023-12-20T05:03:16;5.81;95.75
69359;HTU21D;56520;49.066;8.660;2023-12-20T05:05:41;5.81;95.68
69359;HTU21D;56520;49.066;8.660;2023-12-20T05:08:06;5.82;95.79
69359;HTU21D;56520;49.066;8.660;2023-12-20T05:10:32;5.72;96.00
69359;HTU21D;56520;49.066;8.660;2023-12-20T05:12:57;5.81;96.02
69359;HTU21D;56520;49.066;8.660;2023-12-20T05:15:23;5.80;95.97
69359;HTU21D;56520;49.066;8.660;2023-12-20T05:17:48;5.70;96.25
69359;HTU21D;56520;49.066;8.660;2023-12-20T05:20:13;5.86;95.88
69359;HTU21D;56520;49.066;8.660;2023-12-20T05:22:39;5.77;96.17
69359;HTU21D;56520;49.066;8.660;2023-12-20T05:25:04;5.77;96.32
69359;HTU21D;56520;49.066;8.660;2023-12-20T05:27:30;5.76;96.43
69359;HTU21D;56520;49.066;8.660;2023-12-20T05:29:55;5.77;96.51
69359;HTU21D;56520;49.066;8.660;2023-12-20T05:32:23;5.69;96.75
69359;HTU21D;56520;49.066;8.660;2023-12-20T05:34:48;5.71;96.81
69359;HTU21D;56520;49.066;8.660;2023-12-20T05:37:14;5.70;97.00
69359;HTU21D;56520;49.066;8.660;2023-12-20T05:39:39;5.72;96.90
69359;HTU21D;56520;49.066;8.660;2023-12-20T05:42:04;5.70;96.97
69359;HTU21D;56520;49.066;8.660;2023-12-20T05:44:30;5.72;96.97
69359;HTU21D;56520;49.066;8.660;2023-12-20T05:46:55;5.71;97.02
69359;HTU21D;56520;49.066;8.660;2023-12-20T05:49:21;5.67;97.12
69359;HTU21D;56520;49.066;8.660;2023-12-20T05:51:47;5.66;97.17
69359;HTU21D;56520;49.066;8.660;2023-12-20T05:54:12;5.65;97.29
69359;HTU21D;56520;49.066;8.660;2023-12-20T05:56:38;5.64;97.32
69359;HTU21D;56520;49.066;8.660;2023-12-20T05:59:03;5.66;97.36
69359;HTU21D;56520;49.066;8.660;2023-12-20T06:01:29;5.64;97.41
69359;HTU21D;56520;49.066;8.660;2023-12-20T06:03:54;5.65;97.46
69359;HTU21D;56520;49.066;8.660;2023-12-20T06:06:19;5.69;97.38
69359;HTU21D;56520;49.066;8.660;2023-12-20T06:08:45;5.66;97.42
69359;HTU21D;56520;49.066;8.660;2023-12-20T06:11:10;5.64;97.45
69359;HTU21D;56520;49.066;8.660;2023-12-20T06:13:36;5.63;97.49
69359;HTU21D;56520;49.066;8.660;2023-12-20T06:16:05;5.66;97.54
69359;HTU21D;56520;49.066;8.660;2023-12-20T06:18:31;5.70;97.39
69359;HTU21D;56520;49.066;8.660;2023-12-20T06:20:56;5.68;97.42
69359;HTU21D;56520;49.066;8.660;2023-12-20T06:23:22;5.66;97.44
69359;HTU21D;56520;49.066;8.660;2023-12-20T06:25:47;5.65;97.50
69359;HTU21D;56520;49.066;8.660;2023-12-20T06:28:12;5.65;97.52
69359;HTU21D;56520;49.066;8.660;2023-12-20T06:30:39;5.63;97.57
69359;HTU21D;56520;49.066;8.660;2023-12-20T06:33:05;5.64;97.62
69359;HTU21D;56520;49.066;8.660;2023-12-20T06:35:32;5.62;97.66
69359;HTU21D;56520;49.066;8.660;2023-12-20T06:37:57;5.67;97.65
69359;HTU21D;56520;49.066;8.660;2023-12-20T06:40:22;5.68;97.55
69359;HTU21D;56520;49.066;8.660;2023-12-20T06:42:48;5.66;97.58
69359;HTU21D;56520;49.066;8.660;2023-12-20T06:45:13;5.68;97.44
69359;HTU21D;56520;49.066;8.660;2023-12-20T06:47:39;5.69;97.23
69359;HTU21D;56520;49.066;8.660;2023-12-20T06:50:05;5.71;96.95
69359;HTU21D;56520;49.066;8.660;2023-12-20T06:52:30;5.68;96.76
69359;HTU21D;56520;49.066;8.660;2023-12-20T06:54:56;5.63;96.78
69359;HTU21D;56520;49.066;8.660;2023-12-20T06:57:21;5.59;96.83
69359;HTU21D;56520;49.066;8.660;2023-12-20T06:59:47;5.57;96.87
69359;HTU21D;56520;49.066;8.660;2023-12-20T07:02:12;5.56;96.81
69359;HTU21D;56520;49.066;8.660;2023-12-20T07:04:41;5.53;96.83
69359;HTU21D;56520;49.066;8.660;2023-12-20T07:07:07;5.55;96.79
69359;HTU21D;56520;49.066;8.660;2023-12-20T07:09:33;5.53;96.71
69359;HTU21D;56520;49.066;8.660;2023-12-20T07:11:58;5.50;96.72
69359;HTU21D;56520;49.066;8.660;2023-12-20T07:14:24;5.49;96.72
69359;HTU21D;56520;49.066;8.660;2023-12-20T07:16:50;5.45;96.77
69359;HTU21D;56520;49.066;8.660;2023-12-20T07:19:15;5.43;96.80
69359;HTU21D;56520;49.066;8.660;2023-12-20T07:21:41;5.45;96.73
69359;HTU21D;56520;49.066;8.660;2023-12-20T07:24:06;5.42;96.73
69359;HTU21D;56520;49.066;8.660;2023-12-20T07:26:32;5.40;96.76
69359;HTU21D;56520;49.066;8.660;2023-12-20T07:28:57;5.42;96.75
69359;HTU21D;56520;49.066;8.660;2023-12-20T07:31:24;5.46;96.58
69359;HTU21D;56520;49.066;8.660;2023-12-20T07:33:49;5.48;96.34
69359;HTU21D;56520;49.066;8.660;2023-12-20T07:36:15;5.47;96.26
69359;HTU21D;56520;49.066;8.660;2023-12-20T07:38:40;5.47;96.23
69359;HTU21D;56520;49.066;8.660;2023-12-20T07:41:12;5.49;96.20
69359;HTU21D;56520;49.066;8.660;2023-12-20T07:43:39;5.52;96.10
69359;HTU21D;56520;49.066;8.660;2023-12-20T07:46:06;5.57;95.88
69359;HTU21D;56520;49.066;8.660;2023-12-20T07:48:32;5.54;95.83
69359;HTU21D;56520;49.066;8.660;2023-12-20T07:50:57;5.51;95.78
69359;HTU21D;56520;49.066;8.660;2023-12-20T07:53:23;5.42;95.77
69359;HTU21D;56520;49.066;8.660;2023-12-20T07:55:48;5.31;95.80
69359;HTU21D;56520;49.066;8.660;2023-12-20T07:58:14;5.19;95.91
69359;HTU21D;56520;49.066;8.660;2023-12-20T08:00:39;5.13;95.89
69359;HTU21D;56520;49.066;8.660;2023-12-20T08:03:04;5.04;96.01
69359;HTU21D;56520;49.066;8.660;2023-12-20T08:05:30;4.97;96.11
69359;HTU21D;56520;49.066;8.660;2023-12-20T08:07:55;4.94;96.23
69359;HTU21D;56520;49.066;8.660;2023-12-20T08:10:21;4.94;96.36
69359;HTU21D;56520;49.066;8.660;2023-12-20T08:12:46;5.25;96.23
69359;HTU21D;56520;49.066;8.660;2023-12-20T08:15:11;5.54;95.94
69359;HTU21D;56520;49.066;8.660;2023-12-20T08:17:37;5.65;95.64
69359;HTU21D;56520;49.066;8.660;2023-12-20T08:20:03;5.99;95.20
69359;HTU21D;56520;49.066;8.660;2023-12-20T08:22:28;6.45;94.51
69359;HTU21D;56520;49.066;8.660;2023-12-20T08:24:56;6.98;91.55
69359;HTU21D;56520;49.066;8.660;2023-12-20T08:27:22;7.43;87.48
69359;HTU21D;56520;49.066;8.660;2023-12-20T08:29:47;7.78;85.03
69359;HTU21D;56520;49.066;8.660;2023-12-20T08:32:14;8.13;85.48
69359;HTU21D;56520;49.066;8.660;2023-12-20T08:34:40;8.53;83.52
69359;HTU21D;56520;49.066;8.660;2023-12-20T08:37:05;8.88;80.64
69359;HTU21D;56520;49.066;8.660;2023-12-20T08:39:31;9.17;79.33
69359;HTU21D;56520;49.066;8.660;2023-12-20T08:41:58;9.48;75.63
69359;HTU21D;56520;49.066;8.660;2023-12-20T08:44:24;9.49;75.69
69359;HTU21D;56520;49.066;8.660;2023-12-20T08:46:52;9.52;76.13
69359;HTU21D;56520;49.066;8.660;2023-12-20T08:49:18;9.71;74.28
69359;HTU21D;56520;49.066;8.660;2023-12-20T08:51:43;9.86;72.19
69359;HTU21D;56520;49.066;8.660;2023-12-20T08:54:09;9.82;72.99
69359;HTU21D;56520;49.066;8.660;2023-12-20T08:56:34;9.88;72.79
69359;HTU21D;56520;49.066;8.660;2023-12-20T08:59:00;10.03;71.54
69359;HTU21D;56520;49.066;8.660;2023-12-20T09:01:25;10.13;70.86
69359;HTU21D;56520;49.066;8.660;2023-12-20T09:03:51;10.13;70.97
69359;HTU21D;56520;49.066;8.660;2023-12-20T09:06:16;10.26;69.90
69359;HTU21D;56520;49.066;8.660;2023-12-20T09:08:41;10.28;69.37
69359;HTU21D;56520;49.066;8.660;2023-12-20T09:11:07;10.09;70.64
69359;HTU21D;56520;49.066;8.660;2023-12-20T09:13:32;9.81;71.41
69359;HTU21D;56520;49.066;8.660;2023-12-20T09:15:58;9.40;72.02
69359;HTU21D;56520;49.066;8.660;2023-12-20T09:18:23;9.20;74.46
69359;HTU21D;56520;49.066;8.660;2023-12-20T09:20:49;9.50;71.70
69359;HTU21D;56520;49.066;8.660;2023-12-20T09:23:15;9.60;72.15
69359;HTU21D;56520;49.066;8.660;2023-12-20T09:25:40;9.77;71.70
69359;HTU21D;56520;49.066;8.660;2023-12-20T09:28:05;9.90;71.63
69359;HTU21D;56520;49.066;8.660;2023-12-20T09:30:31;10.27;67.92
69359;HTU21D;56520;49.066;8.660;2023-12-20T09:32:57;10.15;67.26
69359;HTU21D;56520;49.066;8.660;2023-12-20T09:35:23;10.04;68.06
69359;HTU21D;56520;49.066;8.660;2023-12-20T09:37:49;9.99;68.22
69359;HTU21D;56520;49.066;8.660;2023-12-20T09:40:18;10.11;66.06
69359;HTU21D;56520;49.066;8.660;2023-12-20T09:42:55;9.88;69.20
69359;HTU21D;56520;49.066;8.660;2023-12-20T09:45:21;9.97;67.52
69359;HTU21D;56520;49.066;8.660;2023-12-20T09:47:49;9.91;68.94
69359;HTU21D;56520;49.066;8.660;2023-12-20T09:50:16;9.96;68.33
69359;HTU21D;56520;49.066;8.660;2023-12-20T09:52:43;9.92;67.63
69359;HTU21D;56520;49.066;8.660;2023-12-20T09:55:09;9.75;68.98
69359;HTU21D;56520;49.066;8.660;2023-12-20T09:57:35;9.76;69.83
69359;HTU21D;56520;49.066;8.660;2023-12-20T10:00:00;9.78;69.75
69359;HTU21D;56520;49.066;8.660;2023-12-20T10:02:26;9.66;69.61
69359;HTU21D;56520;49.066;8.660;2023-12-20T10:04:54;9.71;68.00
69359;HTU21D;56520;49.066;8.660;2023-12-20T10:07:19;9.52;69.38
69359;HTU21D;56520;49.066;8.660;2023-12-20T10:09:46;9.39;69.73
69359;HTU21D;56520;49.066;8.660;2023-12-20T10:12:12;9.27;70.21
69359;HTU21D;56520;49.066;8.660;2023-12-20T10:14:39;9.02;70.69
69359;HTU21D;56520;49.066;8.660;2023-12-20T10:17:05;8.87;72.39
69359;HTU21D;56520;49.066;8.660;2023-12-20T10:19:31;8.88;71.22
69359;HTU21D;56520;49.066;8.660;2023-12-20T10:22:00;8.76;71.88
69359;HTU21D;56520;49.066;8.660;2023-12-20T10:24:28;8.67;73.26
69359;HTU21D;56520;49.066;8.660;2023-12-20T10:27:04;8.78;73.22
69359;HTU21D;56520;49.066;8.660;2023-12-20T10:29:36;8.91;72.06
69359;HTU21D;56520;49.066;8.660;2023-12-20T10:34:45;8.42;73.51
69359;HTU21D;56520;49.066;8.660;2023-12-20T10:37:11;8.13;74.68
69359;HTU21D;56520;49.066;8.660;2023-12-20T10:39:36;7.88;76.26
69359;HTU21D;56520;49.066;8.660;2023-12-20T10:42:02;7.77;76.31
69359;HTU21D;56520;49.066;8.660;2023-12-20T10:44:28;7.65;76.95
69359;HTU21D;56520;49.066;8.660;2023-12-20T10:46:53;7.60;76.60
69359;HTU21D;56520;49.066;8.660;2023-12-20T10:49:24;7.45;77.56
69359;HTU21D;56520;49.066;8.660;2023-12-20T10:51:52;7.38;77.64
69359;HTU21D;56520;49.066;8.660;2023-12-20T10:54:19;7.28;77.61
69359;HTU21D;56520;49.066;8.660;2023-12-20T10:56:45;7.14;78.66
69359;HTU21D;56520;49.066;8.660;2023-12-20T10:59:11;7.08;78.89
69359;HTU21D;56520;49.066;8.660;2023-12-20T11:01:38;7.05;78.82
69359;HTU21D;56520;49.066;8.660;2023-12-20T11:04:06;7.05;79.02
69359;HTU21D;56520;49.066;8.660;2023-12-20T11:06:47;7.12;78.42
69359;HTU21D;56520;49.066;8.660;2023-12-20T11:09:24;7.14;77.95
69359;HTU21D;56520;49.066;8.660;2023-12-20T11:12:19;7.14;78.50
69359;HTU21D;56520;49.066;8.660;2023-12-20T11:14:50;7.28;77.07
69359;HTU21D;56520;49.066;8.660;2023-12-20T11:17:15;7.28;77.46
69359;HTU21D;56520;49.066;8.660;2023-12-20T11:22:27;7.34;77.11
69359;HTU21D;56520;49.066;8.660;2023-12-20T11:24:53;7.31;77.73
69359;HTU21D;56520;49.066;8.660;2023-12-20T11:27:19;7.33;77.55
69359;HTU21D;56520;49.066;8.660;2023-12-20T11:29:52;7.32;76.95
69359;HTU21D;56520;49.066;8.660;2023-12-20T11:34:53;7.27;76.66
69359;HTU21D;56520;49.066;8.660;2023-12-20T11:37:22;7.29;76.41
69359;HTU21D;56520;49.066;8.660;2023-12-20T11:39:55;7.25;76.77
69359;HTU21D;56520;49.066;8.660;2023-12-20T11:42:20;7.22;76.86
69359;HTU21D;56520;49.066;8.660;2023-12-20T11:44:46;7.14;77.57
69359;HTU21D;56520;49.066;8.660;2023-12-20T11:47:12;7.16;77.37
69359;HTU21D;56520;49.066;8.660;2023-12-20T11:49:39;7.25;77.69
69359;HTU21D;56520;49.066;8.660;2023-12-20T11:52:04;7.30;77.43
69359;HTU21D;56520;49.066;8.660;2023-12-20T11:54:30;7.24;77.72
69359;HTU21D;56520;49.066;8.660;2023-12-20T11:56:55;7.18;77.37
69359;HTU21D;56520;49.066;8.660;2023-12-20T11:59:21;7.05;78.20
69359;HTU21D;56520;49.066;8.660;2023-12-20T12:01:50;7.05;79.00
69359;HTU21D;56520;49.066;8.660;2023-12-20T12:04:16;7.09;78.66
69359;HTU21D;56520;49.066;8.660;2023-12-20T12:06:43;7.07;78.97
69359;HTU21D;56520;49.066;8.660;2023-12-20T12:09:09;7.20;77.74
69359;HTU21D;56520;49.066;8.660;2023-12-20T12:11:34;7.19;77.50
69359;HTU21D;56520;49.066;8.660;2023-12-20T12:14:00;7.13;78.33
69359;HTU21D;56520;49.066;8.660;2023-12-20T12:16:26;7.08;79.31
69359;HTU21D;56520;49.066;8.660;2023-12-20T12:18:58;7.14;79.01
69359;HTU21D;56520;49.066;8.660;2023-12-20T12:21:23;7.14;78.63
69359;HTU21D;56520;49.066;8.660;2023-12-20T12:23:49;7.09;78.96
69359;HTU21D;56520;49.066;8.660;2023-12-20T12:26:15;6.97;79.45
69359;HTU21D;56520;49.066;8.660;2023-12-20T12:28:41;6.99;79.83
69359;HTU21D;56520;49.066;8.660;2023-12-20T12:31:07;6.94;80.25
69359;HTU21D;56520;49.066;8.660;2023-12-20T12:33:33;6.90;80.30
69359;HTU21D;56520;49.066;8.660;2023-12-20T12:36:00;6.81;81.18
69359;HTU21D;56520;49.066;8.660;2023-12-20T12:38:26;6.82;81.88
69359;HTU21D;56520;49.066;8.660;2023-12-20T12:40:53;6.79;82.06
69359;HTU21D;56520;49.066;8.660;2023-12-20T12:43:19;6.70;82.01
69359;HTU21D;56520;49.066;8.660;2023-12-20T12:45:44;6.64;82.43
69359;HTU21D;56520;49.066;8.660;2023-12-20T12:48:10;6.69;82.53
69359;HTU21D;56520;49.066;8.660;2023-12-20T12:50:35;6.68;82.36
69359;HTU21D;56520;49.066;8.660;2023-12-20T12:53:01;6.72;82.06
69359;HTU21D;56520;49.066;8.660;2023-12-20T12:55:28;6.67;82.33
69359;HTU21D;56520;49.066;8.660;2023-12-20T12:57:53;6.64;81.53
69359;HTU21D;56520;49.066;8.660;2023-12-20T13:00:19;6.56;81.59
69359;HTU21D;56520;49.066;8.660;2023-12-20T13:02:44;6.53;81.71
69359;HTU21D;56520;49.066;8.660;2023-12-20T13:05:10;6.50;81.72
69359;HTU21D;56520;49.066;8.660;2023-12-20T13:07:35;6.58;80.78
69359;HTU21D;56520;49.066;8.660;2023-12-20T13:10:02;6.58;80.33
69359;HTU21D;56520;49.066;8.660;2023-12-20T13:12:31;6.55;80.75
69359;HTU21D;56520;49.066;8.660;2023-12-20T13:14:57;6.49;80.93
69359;HTU21D;56520;49.066;8.660;2023-12-20T13:17:23;6.44;80.93
69359;HTU21D;56520;49.066;8.660;2023-12-20T13:19:48;6.46;81.00
69359;HTU21D;56520;49.066;8.660;2023-12-20T13:22:15;6.50;80.50
69359;HTU21D;56520;49.066;8.660;2023-12-20T13:24:40;6.57;79.73
69359;HTU21D;56520;49.066;8.660;2023-12-20T13:27:06;6.55;80.04
69359;HTU21D;56520;49.066;8.660;2023-12-20T13:29:31;6.50;80.30
69359;HTU21D;56520;49.066;8.660;2023-12-20T13:31:57;6.45;80.97
69359;HTU21D;56520;49.066;8.660;2023-12-20T13:34:22;6.50;80.02
69359;HTU21D;56520;49.066;8.660;2023-12-20T13:36:48;6.53;80.07
69359;HTU21D;56520;49.066;8.660;2023-12-20T13:39:16;6.44;80.49
69359;HTU21D;56520;49.066;8.660;2023-12-20T13:41:42;6.40;80.43
69359;HTU21D;56520;49.066;8.660;2023-12-20T13:44:07;6.40;80.69
69359;HTU21D;56520;49.066;8.660;2023-12-20T13:46:33;6.39;80.40
69359;HTU21D;56520;49.066;8.660;2023-12-20T13:48:58;6.42;79.73
69359;HTU21D;56520;49.066;8.660;2023-12-20T13:51:24;6.48;79.64
69359;HTU21D;56520;49.066;8.660;2023-12-20T13:53:49;6.52;79.56
69359;HTU21D;56520;49.066;8.660;2023-12-20T13:56:15;6.49;80.28
69359;HTU21D;56520;49.066;8.660;2023-12-20T13:58:41;6.49;80.17
69359;HTU21D;56520;49.066;8.660;2023-12-20T14:01:10;6.44;80.94
69359;HTU21D;56520;49.066;8.660;2023-12-20T14:03:36;6.43;81.50
69359;HTU21D;56520;49.066;8.660;2023-12-20T14:06:01;6.39;82.00
69359;HTU21D;56520;49.066;8.660;2023-12-20T14:08:27;6.33;82.40
69359;HTU21D;56520;49.066;8.660;2023-12-20T14:10:53;6.35;82.42
69359;HTU21D;56520;49.066;8.660;2023-12-20T14:13:18;6.37;82.20
69359;HTU21D;56520;49.066;8.660;2023-12-20T14:15:44;6.26;82.86
69359;HTU21D;56520;49.066;8.660;2023-12-20T14:18:09;6.22;83.39
69359;HTU21D;56520;49.066;8.660;2023-12-20T14:20:35;6.21;83.41
69359;HTU21D;56520;49.066;8.660;2023-12-20T14:23:04;6.21;83.68
69359;HTU21D;56520;49.066;8.660;2023-12-20T14:25:29;6.17;84.43
69359;HTU21D;56520;49.066;8.660;2023-12-20T14:27:56;6.22;83.56
69359;HTU21D;56520;49.066;8.660;2023-12-20T14:30:22;6.22;83.78
69359;HTU21D;56520;49.066;8.660;2023-12-20T14:32:47;6.20;84.38
69359;HTU21D;56520;49.066;8.660;2023-12-20T14:35:14;6.21;84.48
69359;HTU21D;56520;49.066;8.660;2023-12-20T14:37:40;6.16;84.67
69359;HTU21D;56520;49.066;8.660;2023-12-20T14:40:09;6.22;83.78
69359;HTU21D;56520;49.066;8.660;2023-12-20T14:42:43;6.21;84.10
69359;HTU21D;56520;49.066;8.660;2023-12-20T14:45:09;6.19;84.05
69359;HTU21D;56520;49.066;8.660;2023-12-20T14:47:35;6.14;84.42
69359;HTU21D;56520;49.066;8.660;2023-12-20T14:50:02;6.05;84.87
69359;HTU21D;56520;49.066;8.660;2023-12-20T14:52:29;6.01;85.01
69359;HTU21D;56520;49.066;8.660;2023-12-20T14:54:54;5.97;85.42
69359;HTU21D;56520;49.066;8.660;2023-12-20T14:57:19;6.10;85.52
69359;HTU21D;56520;49.066;8.660;2023-12-20T14:59:45;6.06;85.59
69359;HTU21D;56520;49.066;8.660;2023-12-20T15:02:10;5.94;86.18
69359;HTU21D;56520;49.066;8.660;2023-12-20T15:04:36;5.86;86.35
69359;HTU21D;56520;49.066;8.660;2023-12-20T15:07:01;5.82;86.57
69359;HTU21D;56520;49.066;8.660;2023-12-20T15:09:26;5.70;87.10
69359;HTU21D;56520;49.066;8.660;2023-12-20T15:11:54;5.68;87.19
69359;HTU21D;56520;49.066;8.660;2023-12-20T15:14:20;5.69;86.87
69359;HTU21D;56520;49.066;8.660;2023-12-20T15:16:46;5.56;87.26
69359;HTU21D;56520;49.066;8.660;2023-12-20T15:19:14;5.52;87.40
69359;HTU21D;56520;49.066;8.660;2023-12-20T15:21:40;5.51;87.26
69359;HTU21D;56520;49.066;8.660;2023-12-20T15:24:11;5.62;86.27
69359;HTU21D;56520;49.066;8.660;2023-12-20T15:26:41;5.51;86.74
69359;HTU21D;56520;49.066;8.660;2023-12-20T15:29:07;5.41;87.18
69359;HTU21D;56520;49.066;8.660;2023-12-20T15:31:34;5.46;87.03